Time;durP1;ratioP1;P1;durP2;ratioP2;P2;SDS_P1;SDS_P2;PMS_P1;PMS_P2;Temp;Humidity;BMP_temperature;BMP_pressure;BME280_temperature;BME280_humidity;BME280_pressure;Samples;Min_cycle;Max_cycle;Signal;HPM_P1;HPM_P2
2023/10/13 00:02:10;;;;;;;18.00;13.57;;;14.60;99.90;;;;;;5052838;28;20547;-69
2023/10/13 00:04:37;;;;;;;21.40;13.80;;;14.60;99.90;;;;;;5053053;28;20436;-68
2023/10/13 00:07:08;;;;;;;19.03;13.10;;;14.70;99.90;;;;;;5053119;28;20432;-69
2023/10/13 00:09:38;;;;;;;17.60;13.77;;;14.70;99.90;;;;;;5053009;28;20460;-68
2023/10/13 00:12:08;;;;;;;15.07;13.40;;;14.70;99.90;;;;;;5052852;28;20439;-68
2023/10/13 00:14:34;;;;;;;18.07;13.70;;;14.70;99.90;;;;;;5053221;28;20795;-68
2023/10/13 00:17:03;;;;;;;22.10;13.13;;;14.80;99.90;;;;;;5052305;28;20953;-68
2023/10/13 00:19:38;;;;;;;17.00;13.00;;;14.80;99.90;;;;;;5052538;28;20545;-67
2023/10/13 00:22:12;;;;;;;21.10;13.67;;;14.80;99.90;;;;;;5052974;28;20840;-68
2023/10/13 00:24:45;;;;;;;15.80;11.70;;;14.80;99.90;;;;;;5052779;28;20537;-67
2023/10/13 00:27:27;;;;;;;21.93;12.20;;;14.90;99.90;;;;;;5053416;28;20436;-69
2023/10/13 00:30:17;;;;;;;16.83;13.17;;;14.90;99.90;;;;;;5057000;28;20464;-69
2023/10/13 00:32:44;;;;;;;19.50;13.60;;;14.90;99.90;;;;;;5056683;28;20493;-69
2023/10/13 00:35:15;;;;;;;17.37;12.80;;;14.90;99.90;;;;;;5056966;28;20444;-67
2023/10/13 00:37:44;;;;;;;15.63;13.03;;;15.00;99.90;;;;;;5057166;28;20464;-67
2023/10/13 00:40:40;;;;;;;15.27;12.23;;;15.00;99.90;;;;;;5056760;28;20464;-67
2023/10/13 00:43:29;;;;;;;13.50;11.43;;;15.00;99.90;;;;;;5056329;28;20448;-67
2023/10/13 00:45:57;;;;;;;16.63;13.23;;;15.00;99.90;;;;;;5056242;28;20486;-68
2023/10/13 00:48:28;;;;;;;21.37;12.73;;;15.00;99.90;;;;;;5056327;28;20887;-68
2023/10/13 00:50:56;;;;;;;17.70;12.77;;;15.10;99.90;;;;;;5056517;28;20424;-68
2023/10/13 00:53:25;;;;;;;15.10;11.93;;;15.10;99.90;;;;;;5056455;28;20513;-68
2023/10/13 00:55:55;;;;;;;18.70;12.67;;;15.10;99.90;;;;;;5056654;28;20455;-67
2023/10/13 00:58:23;;;;;;;15.43;13.27;;;15.10;99.90;;;;;;5056528;28;20494;-69
2023/10/13 01:00:56;;;;;;;16.90;11.70;;;15.10;99.90;;;;;;5056062;28;20469;-68
2023/10/13 01:03:26;;;;;;;15.23;11.93;;;15.10;99.90;;;;;;5056124;28;20508;-69
2023/10/13 01:05:54;;;;;;;15.37;12.60;;;15.20;99.90;;;;;;5056273;28;20427;-68
2023/10/13 01:08:34;;;;;;;21.30;14.20;;;15.20;99.90;;;;;;5056174;28;20446;-68
2023/10/13 01:11:01;;;;;;;14.73;11.70;;;15.20;99.90;;;;;;5056239;28;20503;-68
2023/10/13 01:13:30;;;;;;;20.87;13.97;;;15.20;99.90;;;;;;5055941;28;20454;-68
2023/10/13 01:15:58;;;;;;;19.53;13.00;;;15.20;99.90;;;;;;5055956;28;20930;-68
2023/10/13 01:18:28;;;;;;;14.13;11.80;;;15.20;99.90;;;;;;5055997;28;20920;-68
2023/10/13 01:20:58;;;;;;;16.63;11.67;;;15.30;99.90;;;;;;5055739;28;20468;-68
2023/10/13 01:23:28;;;;;;;17.47;13.17;;;15.30;99.90;;;;;;5056254;28;20435;-69
2023/10/13 01:25:56;;;;;;;17.47;13.00;;;15.30;99.90;;;;;;5055771;28;20543;-68
2023/10/13 01:28:22;;;;;;;18.43;14.10;;;15.30;99.90;;;;;;5056174;28;20445;-68
2023/10/13 01:30:50;;;;;;;16.00;13.90;;;15.30;99.90;;;;;;5056076;28;20546;-68
2023/10/13 01:33:16;;;;;;;18.20;13.07;;;15.40;99.90;;;;;;5055944;28;20448;-68
2023/10/13 01:35:47;;;;;;;21.37;13.47;;;15.30;99.90;;;;;;5055605;28;20937;-67
2023/10/13 01:38:13;;;;;;;18.83;14.10;;;15.40;99.90;;;;;;5055431;28;20867;-68
2023/10/13 01:40:42;;;;;;;16.50;13.70;;;15.40;99.90;;;;;;5057144;28;20465;-67
2023/10/13 01:43:10;;;;;;;19.97;15.07;;;15.40;99.90;;;;;;5056388;28;20450;-68
2023/10/13 01:45:49;;;;;;;17.60;14.03;;;15.40;99.90;;;;;;5056007;28;20493;-68
2023/10/13 01:48:16;;;;;;;18.70;14.63;;;15.40;99.90;;;;;;5055437;28;20786;-68
2023/10/13 01:50:47;;;;;;;19.57;14.80;;;15.40;99.90;;;;;;5055364;28;20460;-66
2023/10/13 01:53:14;;;;;;;20.80;15.50;;;15.30;99.90;;;;;;5055633;28;20429;-67
2023/10/13 01:55:43;;;;;;;18.00;15.37;;;15.30;99.90;;;;;;5055591;28;20519;-67
2023/10/13 01:58:14;;;;;;;20.93;14.47;;;15.20;99.90;;;;;;5055915;28;20480;-67
2023/10/13 02:00:42;;;;;;;26.17;16.93;;;15.20;99.90;;;;;;5055141;28;20506;-67
2023/10/13 02:03:14;;;;;;;23.03;15.70;;;15.20;99.90;;;;;;5055232;28;20503;-68
2023/10/13 02:05:46;;;;;;;24.13;15.27;;;15.20;99.90;;;;;;5054856;28;20794;-67
2023/10/13 02:08:18;;;;;;;21.37;15.97;;;15.20;99.90;;;;;;5055169;28;20431;-67
2023/10/13 02:10:47;;;;;;;27.03;16.97;;;15.20;99.90;;;;;;5055147;28;20816;-67
2023/10/13 02:13:15;;;;;;;25.37;16.17;;;15.20;99.90;;;;;;5055032;28;20447;-65
2023/10/13 02:15:43;;;;;;;20.30;15.27;;;15.20;99.90;;;;;;5055178;28;20455;-70
2023/10/13 02:18:10;;;;;;;21.03;15.30;;;15.20;99.90;;;;;;5054807;28;20964;-68
2023/10/13 02:20:43;;;;;;;24.43;16.60;;;15.20;99.90;;;;;;5055059;28;20470;-68
2023/10/13 02:23:10;;;;;;;21.13;16.83;;;15.10;99.90;;;;;;5055309;28;20475;-67
2023/10/13 02:25:43;;;;;;;21.47;16.67;;;15.00;99.90;;;;;;5054908;28;20498;-69
2023/10/13 02:28:13;;;;;;;22.43;17.20;;;15.00;99.90;;;;;;5054848;28;20881;-67
2023/10/13 02:30:44;;;;;;;23.73;17.27;;;14.90;99.90;;;;;;5054666;28;20468;-68
2023/10/13 02:33:11;;;;;;;24.77;17.23;;;14.90;99.90;;;;;;5068968;22;20743;-61
2023/10/13 02:35:50;;;;;;;26.67;17.50;;;14.90;99.90;;;;;;5054780;28;20494;-61
2023/10/13 02:38:16;;;;;;;27.57;18.97;;;14.80;99.90;;;;;;5054892;28;20475;-61
2023/10/13 02:40:43;;;;;;;25.03;18.00;;;14.90;99.90;;;;;;5055066;28;20498;-60
2023/10/13 02:43:10;;;;;;;29.60;18.23;;;14.80;99.90;;;;;;5054895;28;20456;-61
2023/10/13 02:45:37;;;;;;;25.57;18.60;;;14.90;99.90;;;;;;5054734;28;20448;-61
2023/10/13 02:48:12;;;;;;;22.90;18.10;;;14.90;99.90;;;;;;5054410;28;20451;-61
2023/10/13 02:50:44;;;;;;;20.60;15.63;;;14.90;99.90;;;;;;5053562;28;20452;-61
2023/10/13 02:53:12;;;;;;;24.27;17.90;;;14.90;99.90;;;;;;5054354;28;20973;-61
2023/10/13 02:55:40;;;;;;;24.47;18.00;;;15.00;99.90;;;;;;5054687;28;20446;-61
2023/10/13 02:58:08;;;;;;;26.10;18.03;;;15.00;99.90;;;;;;5060264;28;20484;-61
2023/10/13 03:00:40;;;;;;;27.17;18.67;;;15.00;99.90;;;;;;5063701;28;20472;-61
2023/10/13 03:03:06;;;;;;;25.80;17.87;;;15.10;99.90;;;;;;5056147;28;20503;-60
2023/10/13 03:05:38;;;;;;;26.70;19.57;;;15.10;99.90;;;;;;5055885;28;20818;-61
2023/10/13 03:08:05;;;;;;;27.87;19.73;;;15.20;99.90;;;;;;5055118;28;20186;-61
2023/10/13 03:10:33;;;;;;;23.20;17.57;;;15.30;99.90;;;;;;5054868;28;20468;-61
2023/10/13 03:12:59;;;;;;;24.27;19.50;;;15.30;99.90;;;;;;5054166;28;20970;-60
2023/10/13 03:15:30;;;;;;;30.90;19.63;;;15.30;99.90;;;;;;5054363;28;20443;-61
2023/10/13 03:17:58;;;;;;;24.43;18.03;;;15.40;99.90;;;;;;5054503;28;20206;-62
2023/10/13 03:20:31;;;;;;;25.93;18.33;;;15.40;99.90;;;;;;5053898;28;20451;-61
2023/10/13 03:22:57;;;;;;;25.30;18.83;;;15.40;99.90;;;;;;5054042;28;20839;-61
2023/10/13 03:25:29;;;;;;;26.43;18.07;;;15.40;99.90;;;;;;5054109;28;20489;-60
2023/10/13 03:28:04;;;;;;;21.00;17.13;;;15.40;99.90;;;;;;5053852;28;20899;-61
2023/10/13 03:30:35;;;;;;;25.63;19.27;;;15.50;99.90;;;;;;5054156;28;20772;-61
2023/10/13 03:33:08;;;;;;;19.47;17.33;;;15.40;99.90;;;;;;5053830;28;20461;-61
2023/10/13 03:35:37;;;;;;;24.77;17.23;;;15.50;99.90;;;;;;5053684;28;20455;-61
2023/10/13 03:38:10;;;;;;;25.27;16.57;;;15.50;99.90;;;;;;5053386;28;20585;-61
2023/10/13 03:40:39;;;;;;;19.13;15.37;;;15.50;99.90;;;;;;5053692;28;20865;-61
2023/10/13 03:43:09;;;;;;;20.93;14.17;;;15.50;99.90;;;;;;5053494;28;20460;-61
2023/10/13 03:45:38;;;;;;;20.87;15.40;;;15.60;99.90;;;;;;5054389;28;20454;-61
2023/10/13 03:48:11;;;;;;;19.03;14.67;;;15.60;99.90;;;;;;5053860;28;20436;-60
2023/10/13 03:50:46;;;;;;;18.70;15.37;;;15.70;99.90;;;;;;5053800;28;20713;-61
2023/10/13 03:53:13;;;;;;;20.07;14.90;;;15.70;99.90;;;;;;5053096;28;20460;-62
2023/10/13 03:55:40;;;;;;;19.40;15.40;;;15.70;99.90;;;;;;5053676;28;20444;-59
2023/10/13 03:58:10;;;;;;;19.00;15.27;;;15.70;99.90;;;;;;5053023;28;20534;-61
2023/10/13 04:00:37;;;;;;;18.43;15.00;;;15.80;99.90;;;;;;5053482;28;20432;-61
2023/10/13 04:03:08;;;;;;;17.00;14.20;;;15.80;99.90;;;;;;5076286;22;20488;-59
2023/10/13 04:05:40;;;;;;;19.20;16.27;;;15.80;99.90;;;;;;5053268;28;20447;-60
2023/10/13 04:13:37;;;;;;;21.60;14.93;;;15.80;99.90;;;;;;5091161;27;21082;-60
2023/10/13 04:15:18;;;;;;;18.83;14.70;;;15.70;99.90;;;;;;5090453;28;20993;-61
2023/10/13 04:17:46;;;;;;;17.43;13.10;;;15.70;99.90;;;;;;5090589;28;20427;-61
2023/10/13 04:20:32;;;;;;;14.13;12.50;;;15.70;99.90;;;;;;5090536;28;20495;-60
2023/10/13 04:23:18;;;;;;;16.10;13.23;;;15.80;99.90;;;;;;5090022;28;20464;-60
2023/10/13 04:26:09;;;;;;;14.43;12.93;;;15.80;99.90;;;;;;5091229;28;20425;-60
2023/10/13 04:28:50;;;;;;;14.80;13.30;;;15.80;99.90;;;;;;5090460;28;20431;-62
2023/10/13 04:31:24;;;;;;;17.40;12.83;;;15.80;99.90;;;;;;5090443;28;20533;-61
2023/10/13 04:34:02;;;;;;;16.17;12.40;;;15.80;99.90;;;;;;5089903;28;20427;-61
2023/10/13 04:36:44;;;;;;;13.93;11.97;;;15.80;99.90;;;;;;5090371;28;20427;-61
2023/10/13 04:39:16;;;;;;;17.57;14.10;;;15.80;99.90;;;;;;5089788;28;20503;-61
2023/10/13 04:41:42;;;;;;;15.47;13.40;;;15.70;99.90;;;;;;5090036;28;20465;-61
2023/10/13 04:44:48;;;;;;;18.80;12.83;;;15.70;99.90;;;;;;5090137;28;20533;-61
2023/10/13 04:47:21;;;;;;;15.23;12.83;;;15.70;99.90;;;;;;5089739;28;20431;-61
2023/10/13 04:49:51;;;;;;;14.43;12.73;;;15.70;99.90;;;;;;5090498;28;20458;-61
2023/10/13 04:52:38;;;;;;;15.70;13.30;;;15.60;99.90;;;;;;5089691;28;20915;-61
2023/10/13 04:58:14;;;;;;;14.27;11.47;;;15.70;99.90;;;;;;5053002;28;20427;-60
2023/10/13 05:01:39;;;;;;;12.93;11.37;;;15.70;99.90;;;;;;5089054;28;20416;-60
2023/10/13 05:04:21;;;;;;;13.10;11.80;;;15.70;99.90;;;;;;5089255;28;20440;-60
2023/10/13 05:45:36;;;;;;;15.13;12.70;;;15.90;99.90;;;;;;5074773;28;20396;-60
2023/10/13 05:48:11;;;;;;;13.03;10.83;;;15.90;99.90;;;;;;5074959;28;20566;-60
2023/10/13 05:51:32;;;;;;;14.10;11.57;;;15.90;99.90;;;;;;5074874;28;20992;-61
2023/10/13 06:29:27;;;;;;;11.83;9.90;;;16.00;99.90;;;;;;5075312;28;20818;-60
2023/10/13 06:31:57;;;;;;;13.40;10.20;;;16.00;99.90;;;;;;5074904;28;20488;-60
2023/10/13 06:34:37;;;;;;;13.77;10.37;;;16.00;99.90;;;;;;5073084;28;20779;-61
2023/10/13 06:37:21;;;;;;;14.17;12.60;;;16.00;99.90;;;;;;5073603;28;21004;-61
2023/10/13 06:39:50;;;;;;;11.63;10.30;;;16.00;99.90;;;;;;5074087;28;20897;-61
2023/10/13 06:42:19;;;;;;;11.30;10.03;;;16.00;99.90;;;;;;5073726;28;20505;-60
2023/10/13 06:44:46;;;;;;;12.00;9.80;;;16.10;99.90;;;;;;5073660;28;20445;-60
2023/10/13 06:47:13;;;;;;;10.57;9.30;;;16.10;99.90;;;;;;5073797;28;20450;-60
2023/10/13 06:49:43;;;;;;;10.83;8.70;;;16.10;99.90;;;;;;5073474;28;20951;-60
2023/10/13 06:52:10;;;;;;;11.93;10.60;;;16.20;99.90;;;;;;5073888;28;20491;-63
2023/10/13 06:54:38;;;;;;;9.40;8.23;;;16.20;99.90;;;;;;5073635;28;20514;-61
2023/10/13 06:57:13;;;;;;;10.30;9.07;;;16.20;99.90;;;;;;5073429;28;20472;-60
2023/10/13 06:59:41;;;;;;;16.67;8.47;;;16.20;99.90;;;;;;5073633;28;20511;-60
2023/10/13 07:02:09;;;;;;;9.57;8.10;;;16.20;99.90;;;;;;5073258;28;20891;-61
2023/10/13 07:04:39;;;;;;;9.87;8.63;;;16.30;99.90;;;;;;5073393;28;20442;-60
2023/10/13 07:07:10;;;;;;;10.30;8.10;;;16.30;99.90;;;;;;5073505;28;20448;-59
2023/10/13 07:09:49;;;;;;;10.50;8.57;;;16.30;99.90;;;;;;5074063;28;20496;-61
2023/10/13 07:12:18;;;;;;;11.33;8.03;;;16.30;99.90;;;;;;5073486;28;20575;-61
2023/10/13 07:14:52;;;;;;;9.77;8.03;;;16.40;99.90;;;;;;5073721;28;20526;-60
2023/10/13 07:17:23;;;;;;;10.77;8.13;;;16.40;99.90;;;;;;5074014;28;20920;-61
2023/10/13 07:19:54;;;;;;;8.23;6.57;;;16.40;99.90;;;;;;5073484;28;20436;-60
2023/10/13 07:22:21;;;;;;;8.87;7.77;;;16.50;99.90;;;;;;5073000;28;20468;-60
2023/10/13 07:24:49;;;;;;;9.33;7.50;;;16.50;99.90;;;;;;5073088;28;20443;-60
2023/10/13 07:27:22;;;;;;;8.13;7.20;;;16.50;99.90;;;;;;5073096;28;20524;-60
2023/10/13 07:29:55;;;;;;;10.93;7.53;;;16.50;99.90;;;;;;5072989;28;20431;-61
2023/10/13 07:32:25;;;;;;;12.80;8.20;;;16.60;99.90;;;;;;5073732;28;20497;-62
2023/10/13 07:34:56;;;;;;;8.93;7.90;;;16.60;99.90;;;;;;5073489;28;20472;-61
2023/10/13 07:37:25;;;;;;;10.50;7.73;;;16.60;99.90;;;;;;5073308;28;20446;-61
2023/10/13 07:39:57;;;;;;;8.90;7.40;;;16.60;99.90;;;;;;5072664;28;20936;-60
2023/10/13 07:42:31;;;;;;;10.70;7.83;;;16.60;99.90;;;;;;5072972;28;20989;-60
2023/10/13 07:44:59;;;;;;;8.60;7.70;;;16.70;99.90;;;;;;5073388;28;20421;-60
2023/10/13 07:47:28;;;;;;;9.87;8.60;;;16.70;99.90;;;;;;5073109;28;20450;-60
2023/10/13 07:49:56;;;;;;;9.23;8.23;;;16.70;99.90;;;;;;5072959;28;20783;-60
2023/10/13 07:52:35;;;;;;;9.67;7.40;;;16.70;99.90;;;;;;5073448;28;20485;-60
2023/10/13 07:55:11;;;;;;;8.60;7.70;;;16.70;99.90;;;;;;5073092;28;20420;-62
2023/10/13 07:57:53;;;;;;;10.97;8.00;;;16.70;99.90;;;;;;5072971;28;20454;-61
2023/10/13 08:00:29;;;;;;;9.57;8.27;;;16.80;99.90;;;;;;5073104;28;20426;-60
2023/10/13 08:03:09;;;;;;;10.20;7.90;;;16.80;99.90;;;;;;5072895;28;21013;-60
2023/10/13 08:05:42;;;;;;;8.80;7.30;;;16.80;99.90;;;;;;5073252;28;20508;-60
2023/10/13 08:08:14;;;;;;;9.17;8.00;;;16.80;99.90;;;;;;5072923;28;20438;-62
2023/10/13 08:10:42;;;;;;;9.00;8.20;;;16.80;99.90;;;;;;5072616;28;20948;-61
2023/10/13 08:13:12;;;;;;;11.20;7.67;;;16.90;99.90;;;;;;5072646;28;20495;-62
2023/10/13 08:15:47;;;;;;;11.27;7.70;;;16.90;99.90;;;;;;5074082;28;20501;-60
2023/10/13 08:18:19;;;;;;;11.50;7.60;;;17.00;99.90;;;;;;5073404;28;20808;-61
2023/10/13 08:20:47;;;;;;;7.53;6.67;;;17.10;99.90;;;;;;5073129;28;20438;-61
2023/10/13 08:23:24;;;;;;;6.10;5.50;;;17.20;99.90;;;;;;5073215;28;20454;-61
2023/10/13 08:26:29;;;;;;;9.57;5.47;;;17.20;99.90;;;;;;5072880;28;20954;-60
2023/10/13 08:29:49;;;;;;;9.17;5.87;;;17.30;99.90;;;;;;5072997;28;20445;-60
2023/10/13 08:32:04;;;;;;;4.83;4.37;;;17.40;99.90;;;;;;5071818;28;20478;-60
2023/10/13 08:34:38;;;;;;;8.20;5.47;;;17.50;99.90;;;;;;5072932;28;20486;-60
2023/10/13 08:37:19;;;;;;;5.03;4.37;;;17.60;99.90;;;;;;5072340;28;20496;-59
2023/10/13 08:42:52;;;;;;;5.03;4.50;;;17.80;99.90;;;;;;5071886;28;20481;-62
2023/10/13 08:45:53;;;;;;;8.50;4.47;;;17.80;99.90;;;;;;5072653;28;20439;-61
2023/10/13 08:48:12;;;;;;;4.80;3.87;;;17.80;99.90;;;;;;5072066;28;21033;-62
2023/10/13 08:50:48;;;;;;;5.40;4.30;;;17.80;99.90;;;;;;5072274;28;20869;-61
2023/10/13 08:53:27;;;;;;;6.57;3.90;;;17.90;99.90;;;;;;5072483;28;20545;-62
2023/10/13 08:56:05;;;;;;;6.60;4.00;;;18.00;99.90;;;;;;5071838;28;20889;-61
2023/10/13 09:01:34;;;;;;;5.20;4.20;;;18.10;99.90;;;;;;5075291;28;20976;-61
2023/10/13 09:04:21;;;;;;;4.70;4.30;;;18.10;99.90;;;;;;5075697;28;20441;-61
2023/10/13 09:07:08;;;;;;;4.93;4.43;;;18.20;99.90;;;;;;5076062;28;20478;-61
2023/10/13 09:10:10;;;;;;;5.20;4.70;;;18.20;99.90;;;;;;5075404;28;20995;-61
2023/10/13 09:12:38;;;;;;;5.10;3.90;;;18.30;99.90;;;;;;5075528;28;20577;-62
2023/10/13 09:15:17;;;;;;;5.13;4.33;;;18.30;99.90;;;;;;5075830;28;20452;-62
2023/10/13 09:17:48;;;;;;;6.10;4.50;;;18.20;99.90;;;;;;5075494;28;20431;-62
2023/10/13 09:20:31;;;;;;;4.73;4.30;;;18.20;99.90;;;;;;5076169;28;20439;-61
2023/10/13 09:23:12;;;;;;;6.23;4.50;;;18.30;99.90;;;;;;5075676;28;20647;-59
2023/10/13 09:25:53;;;;;;;4.73;4.27;;;18.30;99.90;;;;;;5075311;28;20426;-62
2023/10/13 09:28:21;;;;;;;7.70;4.33;;;18.40;99.90;;;;;;5075481;28;20429;-62
2023/10/13 09:30:52;;;;;;;4.90;3.97;;;18.50;99.90;;;;;;5075532;28;20946;-62
2023/10/13 09:33:32;;;;;;;5.63;4.17;;;18.60;99.90;;;;;;5075270;28;20479;-62
2023/10/13 09:36:00;;;;;;;4.50;4.10;;;18.60;99.90;;;;;;5075722;28;20484;-62
2023/10/13 09:38:27;;;;;;;5.37;3.53;;;18.70;99.90;;;;;;5075641;28;20437;-62
2023/10/13 09:40:57;;;;;;;5.27;4.13;;;18.80;99.90;;;;;;5075240;28;20437;-61
2023/10/13 09:43:25;;;;;;;5.33;3.90;;;18.90;99.90;;;;;;5075570;28;20499;-63
2023/10/13 09:46:03;;;;;;;4.47;4.07;;;19.00;99.90;;;;;;5075979;28;20443;-62
2023/10/13 09:48:35;;;;;;;5.03;4.53;;;19.10;99.90;;;;;;5078825;28;20491;-64
2023/10/13 09:51:03;;;;;;;3.73;3.37;;;19.20;99.90;;;;;;5076749;28;20516;-63
2023/10/13 09:53:32;;;;;;;5.50;3.60;;;19.20;99.90;;;;;;5076233;28;20445;-61
2023/10/13 09:56:11;;;;;;;5.23;3.60;;;19.30;99.90;;;;;;5079591;28;20450;-63
2023/10/13 09:58:47;;;;;;;4.17;3.77;;;19.40;99.90;;;;;;5075937;28;20425;-63
2023/10/13 10:01:21;;;;;;;4.73;3.33;;;19.60;99.90;;;;;;5075346;28;20461;-62
2023/10/13 10:03:54;;;;;;;7.70;3.67;;;19.70;99.90;;;;;;5075047;28;20485;-63
2023/10/13 10:06:28;;;;;;;4.73;3.13;;;19.90;99.90;;;;;;5075423;28;20431;-61
2023/10/13 10:09:11;;;;;;;6.43;3.63;;;19.90;99.90;;;;;;5074684;28;20804;-62
2023/10/13 10:12:00;;;;;;;4.90;3.00;;;20.10;99.90;;;;;;5074488;28;20510;-63
2023/10/13 10:14:46;;;;;;;3.83;3.43;;;20.10;99.90;;;;;;5074761;28;20423;-61
2023/10/13 10:17:14;;;;;;;7.23;3.60;;;20.20;99.90;;;;;;5074712;28;20931;-63
2023/10/13 10:19:54;;;;;;;6.90;3.10;;;20.20;99.90;;;;;;5074983;28;20436;-63
2023/10/13 10:22:32;;;;;;;9.10;4.47;;;20.20;99.90;;;;;;5074902;28;20524;-63
2023/10/13 10:25:00;;;;;;;5.43;3.73;;;20.20;99.90;;;;;;5074627;28;20510;-62
2023/10/13 10:27:29;;;;;;;4.23;3.13;;;20.30;99.90;;;;;;5074377;28;20985;-63
2023/10/13 10:29:56;;;;;;;7.70;3.67;;;20.30;99.90;;;;;;5074459;28;20455;-61
2023/10/13 10:32:33;;;;;;;6.17;4.20;;;20.40;99.90;;;;;;5074042;28;20485;-62
2023/10/13 10:35:14;;;;;;;4.10;3.67;;;20.50;99.90;;;;;;5074930;28;20430;-62
2023/10/13 10:37:46;;;;;;;3.47;3.13;;;20.60;99.90;;;;;;5074309;28;20428;-62
2023/10/13 10:40:33;;;;;;;5.40;3.80;;;20.70;99.90;;;;;;5074202;28;20429;-61
2023/10/13 10:43:00;;;;;;;5.83;3.50;;;20.80;99.90;;;;;;5074611;28;20462;-63
2023/10/13 10:45:32;;;;;;;8.40;4.90;;;20.90;99.90;;;;;;5077895;28;20604;-62
2023/10/13 10:47:59;;;;;;;5.80;4.30;;;21.10;99.90;;;;;;5074132;28;20484;-62
2023/10/13 10:50:34;;;;;;;5.97;4.27;;;21.10;99.90;;;;;;5074426;28;20446;-62
2023/10/13 10:53:08;;;;;;;5.90;4.40;;;21.20;99.90;;;;;;5073395;28;20576;-63
2023/10/13 10:55:36;;;;;;;6.30;5.00;;;21.20;99.90;;;;;;5073695;28;20525;-62
2023/10/13 10:58:06;;;;;;;6.93;4.10;;;21.30;99.90;;;;;;5074246;28;20831;-63
2023/10/13 11:00:45;;;;;;;10.57;6.10;;;21.40;99.90;;;;;;5074143;28;20556;-63
2023/10/13 11:03:12;;;;;;;15.40;8.60;;;21.40;99.90;;;;;;5073771;28;20825;-62
2023/10/13 11:05:49;;;;;;;11.50;7.20;;;21.50;99.90;;;;;;5073620;28;20894;-63
2023/10/13 11:08:31;;;;;;;6.63;4.00;;;21.60;99.90;;;;;;5073628;28;20496;-63
2023/10/13 11:11:00;;;;;;;9.43;6.30;;;21.60;99.90;;;;;;5072995;28;20921;-63
2023/10/13 11:13:30;;;;;;;7.17;6.10;;;21.60;99.90;;;;;;5074466;28;20479;-63
2023/10/13 11:15:58;;;;;;;8.03;5.13;;;21.70;99.90;;;;;;5074764;28;20518;-64
2023/10/13 11:18:40;;;;;;;6.43;4.37;;;21.80;99.90;;;;;;5075996;28;20461;-62
2023/10/13 11:21:11;;;;;;;5.83;3.97;;;21.90;99.90;;;;;;5076013;28;20439;-63
2023/10/13 11:23:39;;;;;;;7.77;4.90;;;22.00;99.90;;;;;;5075151;28;20506;-62
2023/10/13 11:26:07;;;;;;;7.90;4.63;;;22.00;99.90;;;;;;5076929;28;20447;-62
2023/10/13 11:28:34;;;;;;;7.07;4.33;;;22.10;99.90;;;;;;5076106;28;20447;-62
2023/10/13 11:31:10;;;;;;;6.97;4.20;;;22.10;99.90;;;;;;5074179;28;20453;-64
2023/10/13 11:33:46;;;;;;;26.53;24.13;;;22.20;99.90;;;;;;5073765;28;20493;-63
2023/10/13 11:36:18;;;;;;;9.00;6.20;;;22.20;99.90;;;;;;5073718;28;20914;-63
2023/10/13 11:38:49;;;;;;;7.23;5.43;;;22.20;99.90;;;;;;5074177;28;20431;-64
2023/10/13 11:41:18;;;;;;;9.13;5.67;;;22.30;99.90;;;;;;5073500;28;20463;-62
2023/10/13 11:43:52;;;;;;;7.30;5.13;;;22.30;99.90;;;;;;5074161;28;20987;-62
2023/10/13 11:49:07;;;;;;;9.43;5.03;;;22.20;99.90;;;;;;5074444;28;20423;-62
2023/10/13 11:51:38;;;;;;;12.80;5.07;;;22.10;99.90;;;;;;5073142;28;20454;-62
2023/10/13 11:54:05;;;;;;;8.00;4.20;;;22.10;99.90;;;;;;5072469;28;20414;-63
2023/10/13 11:56:31;;;;;;;9.27;4.87;;;22.00;99.90;;;;;;5072550;28;20438;-62
2023/10/13 11:59:01;;;;;;;13.53;5.70;;;21.90;99.90;;;;;;5072957;28;20449;-62
2023/10/13 12:07:14;;;;;;;9.33;4.50;;;21.50;99.90;;;;;;5073027;28;20410;-64
2023/10/13 12:09:52;;;;;;;11.20;5.20;;;21.40;99.90;;;;;;5073282;28;20799;-62
2023/10/13 12:12:18;;;;;;;13.10;5.10;;;21.40;99.90;;;;;;5072419;28;21030;-62
2023/10/13 12:14:54;;;;;;;20.83;10.13;;;21.40;99.90;;;;;;5072685;28;20454;-62
2023/10/13 12:17:27;;;;;;;9.43;5.10;;;21.30;99.90;;;;;;5073514;28;20479;-64
2023/10/13 12:19:54;;;;;;;12.23;4.70;;;21.40;99.90;;;;;;5074138;28;20423;-62
2023/10/13 12:22:28;;;;;;;9.10;5.27;;;21.50;99.90;;;;;;5072767;28;20458;-61
2023/10/13 12:24:55;;;;;;;7.70;5.30;;;21.50;99.90;;;;;;5073312;28;20992;-62
2023/10/13 12:27:26;;;;;;;8.87;5.10;;;21.70;99.90;;;;;;5074521;28;20529;-62
2023/10/13 12:29:56;;;;;;;10.30;4.67;;;21.80;99.90;;;;;;5072990;28;20504;-63
2023/10/13 12:32:25;;;;;;;7.07;5.00;;;21.90;99.90;;;;;;5073810;28;20496;-62
2023/10/13 12:35:00;;;;;;;5.73;4.23;;;22.10;99.90;;;;;;5077903;28;20452;-62
2023/10/13 12:37:50;;;;;;;8.23;4.57;;;22.20;99.90;;;;;;5076634;28;20435;-62
2023/10/13 12:51:40;;;;;;;9.00;5.40;;;22.70;99.90;;;;;;5075736;28;20442;-62
2023/10/13 12:54:14;;;;;;;11.67;4.70;;;22.80;99.90;;;;;;5075850;28;20477;-62
2023/10/13 12:56:42;;;;;;;13.17;5.13;;;22.90;99.90;;;;;;5076169;28;20475;-63
2023/10/13 12:59:13;;;;;;;7.50;5.50;;;22.90;99.90;;;;;;5075949;28;20447;-63
2023/10/13 13:01:42;;;;;;;20.47;5.57;;;22.90;99.90;;;;;;5076060;28;20976;-63
2023/10/13 13:04:16;;;;;;;9.53;4.90;;;22.90;99.90;;;;;;5075979;28;20443;-62
2023/10/13 13:06:45;;;;;;;11.37;5.00;;;22.90;99.90;;;;;;5075903;28;20437;-63
2023/10/13 13:09:13;;;;;;;10.20;5.27;;;22.90;99.90;;;;;;5075788;28;20940;-62
2023/10/13 13:11:40;;;;;;;11.40;5.30;;;23.10;99.90;;;;;;5075651;28;20486;-63
2023/10/13 13:14:08;;;;;;;6.70;5.03;;;23.40;99.90;;;;;;5075784;28;20482;-63
2023/10/13 13:16:38;;;;;;;9.73;5.53;;;23.50;99.90;;;;;;5075742;28;20470;-63
2023/10/13 13:19:10;;;;;;;12.83;5.57;;;23.80;99.90;;;;;;5075313;28;20800;-63
2023/10/13 13:21:37;;;;;;;11.70;4.97;;;24.00;99.90;;;;;;5075476;28;20459;-64
2023/10/13 13:24:05;;;;;;;8.47;4.70;;;24.20;98.80;;;;;;5075384;28;20938;-61
2023/10/13 13:26:33;;;;;;;9.30;5.30;;;24.30;97.90;;;;;;5075628;28;21009;-61
2023/10/13 13:29:00;;;;;;;14.33;5.57;;;24.40;96.50;;;;;;5075975;28;20739;-61
2023/10/13 13:31:29;;;;;;;10.57;5.20;;;24.40;95.90;;;;;;5075508;28;20840;-61
2023/10/13 13:33:56;;;;;;;10.37;5.87;;;24.40;95.40;;;;;;5075497;28;20478;-63
2023/10/13 13:36:24;;;;;;;10.33;5.00;;;24.40;95.10;;;;;;5076350;28;20439;-63
2023/10/13 13:38:51;;;;;;;9.03;5.47;;;24.20;94.70;;;;;;5075655;28;20447;-61
2023/10/13 13:41:18;;;;;;;8.00;5.17;;;24.10;94.10;;;;;;5075516;28;20467;-63
2023/10/13 13:43:56;;;;;;;8.10;5.10;;;23.90;94.30;;;;;;5075306;28;20435;-63
2023/10/13 13:46:27;;;;;;;11.00;6.40;;;23.80;94.50;;;;;;5075306;28;20426;-65
2023/10/13 13:48:58;;;;;;;9.73;5.00;;;23.80;94.50;;;;;;5075530;28;20518;-63
2023/10/13 13:51:27;;;;;;;9.00;5.33;;;23.80;94.20;;;;;;5074937;28;20467;-61
2023/10/13 13:53:55;;;;;;;10.30;5.40;;;23.70;93.90;;;;;;5075507;28;20830;-63
2023/10/13 13:56:25;;;;;;;12.03;4.93;;;23.70;93.80;;;;;;5075260;28;20963;-61
2023/10/13 13:58:54;;;;;;;14.50;5.40;;;23.70;93.60;;;;;;5075947;28;20444;-63
2023/10/13 14:01:22;;;;;;;10.47;4.90;;;23.70;93.60;;;;;;5075970;28;20508;-63
2023/10/13 14:03:50;;;;;;;8.10;5.07;;;23.70;93.60;;;;;;5075998;28;20436;-62
2023/10/13 14:06:21;;;;;;;6.90;4.27;;;23.80;93.50;;;;;;5075315;28;20447;-62
2023/10/13 14:08:50;;;;;;;9.27;5.07;;;23.80;93.20;;;;;;5074943;28;20493;-63
2023/10/13 14:14:11;;;;;;;10.50;5.87;;;23.90;92.90;;;;;;5073801;28;20463;-63
2023/10/13 14:16:44;;;;;;;10.03;5.03;;;23.90;92.80;;;;;;5074398;28;20817;-63
2023/10/13 14:19:11;;;;;;;12.83;5.70;;;23.80;92.50;;;;;;5074016;28;20439;-61
2023/10/13 14:21:38;;;;;;;10.30;6.07;;;23.80;92.20;;;;;;5074345;28;20480;-62
2023/10/13 14:24:12;;;;;;;9.07;4.73;;;23.80;92.00;;;;;;5074618;28;20493;-63
2023/10/13 14:26:42;;;;;;;6.40;5.27;;;23.80;91.50;;;;;;5074457;28;20427;-63
2023/10/13 14:29:14;;;;;;;10.83;5.30;;;23.80;91.10;;;;;;5074171;28;20994;-63
2023/10/13 14:31:41;;;;;;;8.53;5.13;;;23.80;90.80;;;;;;5074056;28;20463;-61
2023/10/13 14:34:08;;;;;;;10.37;4.57;;;23.70;90.50;;;;;;5074014;28;20483;-63
2023/10/13 14:36:35;;;;;;;19.80;5.40;;;23.70;90.10;;;;;;5073941;28;20445;-63
2023/10/13 14:39:02;;;;;;;8.73;4.87;;;23.60;89.30;;;;;;5074525;28;20446;-62
2023/10/13 14:41:29;;;;;;;9.27;5.73;;;23.70;88.40;;;;;;5074359;28;20855;-62
2023/10/13 14:44:04;;;;;;;11.10;5.27;;;23.70;87.70;;;;;;5075096;28;20493;-62
2023/10/13 14:46:35;;;;;;;11.03;6.20;;;23.70;86.30;;;;;;5074045;28;20932;-61
2023/10/13 14:49:02;;;;;;;6.00;5.40;;;23.80;85.60;;;;;;5074380;28;20435;-62
2023/10/13 14:51:31;;;;;;;9.30;5.63;;;23.80;84.10;;;;;;5073865;28;20459;-63
2023/10/13 14:53:59;;;;;;;6.67;4.67;;;23.70;83.30;;;;;;5074330;28;20482;-62